sensor_id;sensor_type;location;lat;lon;timestamp;P1;durP1;ratioP1;P2;durP2;ratioP2
77535;SDS011;70085;44.530;0.094;2023-12-29T00:02:22;16.20;;;15.60;;
77535;SDS011;70085;44.530;0.094;2023-12-29T00:07:55;15.80;;;15.20;;
77535;SDS011;70085;44.530;0.094;2023-12-29T00:13:28;15.90;;;15.30;;
77535;SDS011;70085;44.530;0.094;2023-12-29T00:19:02;16.70;;;16.10;;
77535;SDS011;70085;44.530;0.094;2023-12-29T00:24:36;15.67;;;15.07;;
77535;SDS011;70085;44.530;0.094;2023-12-29T00:30:10;15.33;;;14.73;;
77535;SDS011;70085;44.530;0.094;2023-12-29T00:35:42;15.20;;;14.60;;
77535;SDS011;70085;44.530;0.094;2023-12-29T00:41:14;15.83;;;15.23;;
77535;SDS011;70085;44.530;0.094;2023-12-29T00:46:48;14.30;;;13.80;;
77535;SDS011;70085;44.530;0.094;2023-12-29T00:52:21;15.37;;;14.77;;
77535;SDS011;70085;44.530;0.094;2023-12-29T00:57:55;16.77;;;16.17;;
77535;SDS011;70085;44.530;0.094;2023-12-29T01:03:27;15.93;;;15.33;;
77535;SDS011;70085;44.530;0.094;2023-12-29T01:08:59;16.67;;;15.97;;
77535;SDS011;70085;44.530;0.094;2023-12-29T01:14:32;14.63;;;14.13;;
77535;SDS011;70085;44.530;0.094;2023-12-29T01:20:06;15.00;;;14.40;;
77535;SDS011;70085;44.530;0.094;2023-12-29T01:25:39;14.50;;;14.00;;
77535;SDS011;70085;44.530;0.094;2023-12-29T01:31:14;16.70;;;16.03;;
77535;SDS011;70085;44.530;0.094;2023-12-29T01:36:44;16.97;;;16.13;;
77535;SDS011;70085;44.530;0.094;2023-12-29T01:42:16;15.87;;;15.27;;
77535;SDS011;70085;44.530;0.094;2023-12-29T01:47:50;18.63;;;17.60;;
77535;SDS011;70085;44.530;0.094;2023-12-29T01:53:24;16.33;;;15.63;;
77535;SDS011;70085;44.530;0.094;2023-12-29T01:58:57;15.83;;;15.23;;
77535;SDS011;70085;44.530;0.094;2023-12-29T02:04:30;15.93;;;15.33;;
77535;SDS011;70085;44.530;0.094;2023-12-29T02:10:05;17.67;;;16.73;;
77535;SDS011;70085;44.530;0.094;2023-12-29T02:15:37;15.90;;;15.30;;
77535;SDS011;70085;44.530;0.094;2023-12-29T02:21:09;15.27;;;14.67;;
77535;SDS011;70085;44.530;0.094;2023-12-29T02:26:41;15.57;;;14.97;;
77535;SDS011;70085;44.530;0.094;2023-12-29T02:32:15;15.53;;;14.93;;
77535;SDS011;70085;44.530;0.094;2023-12-29T02:37:46;15.83;;;15.23;;
77535;SDS011;70085;44.530;0.094;2023-12-29T02:43:18;15.57;;;14.97;;
77535;SDS011;70085;44.530;0.094;2023-12-29T02:48:52;16.43;;;15.83;;
77535;SDS011;70085;44.530;0.094;2023-12-29T02:54:25;15.50;;;14.90;;
77535;SDS011;70085;44.530;0.094;2023-12-29T02:59:58;17.30;;;16.60;;
77535;SDS011;70085;44.530;0.094;2023-12-29T03:05:31;16.53;;;15.93;;
77535;SDS011;70085;44.530;0.094;2023-12-29T03:11:05;16.13;;;15.53;;
77535;SDS011;70085;44.530;0.094;2023-12-29T03:16:37;15.87;;;15.27;;
77535;SDS011;70085;44.530;0.094;2023-12-29T03:22:09;15.73;;;15.13;;
77535;SDS011;70085;44.530;0.094;2023-12-29T03:27:43;16.40;;;15.80;;
77535;SDS011;70085;44.530;0.094;2023-12-29T03:33:17;16.50;;;15.90;;
77535;SDS011;70085;44.530;0.094;2023-12-29T03:38:50;17.77;;;17.07;;
77535;SDS011;70085;44.530;0.094;2023-12-29T03:44:24;16.07;;;15.47;;
77535;SDS011;70085;44.530;0.094;2023-12-29T03:49:58;16.07;;;15.47;;
77535;SDS011;70085;44.530;0.094;2023-12-29T03:55:30;17.20;;;16.60;;
77535;SDS011;70085;44.530;0.094;2023-12-29T04:01:02;17.87;;;17.17;;
77535;SDS011;70085;44.530;0.094;2023-12-29T04:06:34;16.17;;;15.57;;
77535;SDS011;70085;44.530;0.094;2023-12-29T04:12:08;17.13;;;16.53;;
77535;SDS011;70085;44.530;0.094;2023-12-29T04:17:40;17.60;;;16.93;;
77535;SDS011;70085;44.530;0.094;2023-12-29T04:23:14;16.80;;;16.20;;
77535;SDS011;70085;44.530;0.094;2023-12-29T04:28:46;15.60;;;15.00;;
77535;SDS011;70085;44.530;0.094;2023-12-29T04:34:19;15.40;;;14.80;;
77535;SDS011;70085;44.530;0.094;2023-12-29T04:39:53;16.20;;;15.60;;
77535;SDS011;70085;44.530;0.094;2023-12-29T04:45:27;17.83;;;17.03;;
77535;SDS011;70085;44.530;0.094;2023-12-29T04:50:59;18.53;;;17.83;;
77535;SDS011;70085;44.530;0.094;2023-12-29T04:56:31;16.50;;;15.90;;
77535;SDS011;70085;44.530;0.094;2023-12-29T05:02:04;15.53;;;14.93;;
77535;SDS011;70085;44.530;0.094;2023-12-29T05:07:37;16.23;;;15.63;;
77535;SDS011;70085;44.530;0.094;2023-12-29T05:13:09;15.37;;;14.77;;
77535;SDS011;70085;44.530;0.094;2023-12-29T05:18:43;16.13;;;15.53;;
77535;SDS011;70085;44.530;0.094;2023-12-29T05:24:17;15.20;;;14.60;;
77535;SDS011;70085;44.530;0.094;2023-12-29T05:29:49;16.60;;;16.00;;
77535;SDS011;70085;44.530;0.094;2023-12-29T05:35:22;15.80;;;15.20;;
77535;SDS011;70085;44.530;0.094;2023-12-29T05:40:56;16.80;;;16.20;;
77535;SDS011;70085;44.530;0.094;2023-12-29T05:46:28;16.47;;;15.87;;
77535;SDS011;70085;44.530;0.094;2023-12-29T05:52:00;16.53;;;15.83;;
77535;SDS011;70085;44.530;0.094;2023-12-29T05:57:33;16.07;;;15.47;;
77535;SDS011;70085;44.530;0.094;2023-12-29T06:03:06;15.60;;;15.00;;
77535;SDS011;70085;44.530;0.094;2023-12-29T06:08:38;14.47;;;13.97;;
77535;SDS011;70085;44.530;0.094;2023-12-29T06:14:11;17.20;;;16.60;;
77535;SDS011;70085;44.530;0.094;2023-12-29T06:19:45;15.73;;;15.13;;
77535;SDS011;70085;44.530;0.094;2023-12-29T06:25:18;15.67;;;15.07;;
77535;SDS011;70085;44.530;0.094;2023-12-29T06:30:51;16.47;;;15.53;;
77535;SDS011;70085;44.530;0.094;2023-12-29T06:36:24;15.50;;;14.80;;
77535;SDS011;70085;44.530;0.094;2023-12-29T06:41:57;15.67;;;15.07;;
77535;SDS011;70085;44.530;0.094;2023-12-29T06:47:30;17.63;;;16.93;;
77535;SDS011;70085;44.530;0.094;2023-12-29T06:53:03;16.07;;;15.47;;
77535;SDS011;70085;44.530;0.094;2023-12-29T06:58:36;16.13;;;15.53;;
77535;SDS011;70085;44.530;0.094;2023-12-29T07:04:10;17.43;;;16.63;;
77535;SDS011;70085;44.530;0.094;2023-12-29T07:09:40;15.67;;;15.07;;
77535;SDS011;70085;44.530;0.094;2023-12-29T07:15:15;15.17;;;14.57;;
77535;SDS011;70085;44.530;0.094;2023-12-29T07:20:45;17.50;;;16.87;;
77535;SDS011;70085;44.530;0.094;2023-12-29T07:26:19;17.20;;;16.50;;
77535;SDS011;70085;44.530;0.094;2023-12-29T07:31:52;15.93;;;15.33;;
77535;SDS011;70085;44.530;0.094;2023-12-29T07:37:26;15.30;;;14.70;;
77535;SDS011;70085;44.530;0.094;2023-12-29T07:43:00;16.63;;;16.03;;
77535;SDS011;70085;44.530;0.094;2023-12-29T07:48:33;16.63;;;16.03;;
77535;SDS011;70085;44.530;0.094;2023-12-29T07:54:07;15.40;;;14.80;;
77535;SDS011;70085;44.530;0.094;2023-12-29T07:59:40;16.47;;;15.87;;
77535;SDS011;70085;44.530;0.094;2023-12-29T08:05:15;19.10;;;18.20;;
77535;SDS011;70085;44.530;0.094;2023-12-29T08:10:47;15.67;;;15.07;;
77535;SDS011;70085;44.530;0.094;2023-12-29T08:16:20;14.23;;;13.73;;
77535;SDS011;70085;44.530;0.094;2023-12-29T08:21:52;15.83;;;15.23;;
77535;SDS011;70085;44.530;0.094;2023-12-29T08:27:26;17.30;;;16.70;;
77535;SDS011;70085;44.530;0.094;2023-12-29T08:32:58;16.50;;;15.90;;
77535;SDS011;70085;44.530;0.094;2023-12-29T08:38:31;16.27;;;15.67;;
77535;SDS011;70085;44.530;0.094;2023-12-29T08:44:04;18.03;;;17.33;;
77535;SDS011;70085;44.530;0.094;2023-12-29T08:49:37;19.53;;;18.63;;
77535;SDS011;70085;44.530;0.094;2023-12-29T08:55:10;23.60;;;19.47;;
77535;SDS011;70085;44.530;0.094;2023-12-29T09:00:44;16.27;;;15.67;;
77535;SDS011;70085;44.530;0.094;2023-12-29T09:06:18;13.10;;;12.60;;
77535;SDS011;70085;44.530;0.094;2023-12-29T09:11:51;11.87;;;11.47;;
77535;SDS011;70085;44.530;0.094;2023-12-29T09:17:24;37.23;;;35.77;;
77535;SDS011;70085;44.530;0.094;2023-12-29T09:22:58;10.97;;;10.57;;
77535;SDS011;70085;44.530;0.094;2023-12-29T09:28:32;9.83;;;9.43;;
77535;SDS011;70085;44.530;0.094;2023-12-29T09:34:02;11.47;;;11.07;;
77535;SDS011;70085;44.530;0.094;2023-12-29T09:39:36;12.43;;;11.93;;
77535;SDS011;70085;44.530;0.094;2023-12-29T09:45:10;9.53;;;9.13;;
77535;SDS011;70085;44.530;0.094;2023-12-29T09:50:44;12.67;;;12.17;;
77535;SDS011;70085;44.530;0.094;2023-12-29T09:56:17;10.33;;;9.53;;
77535;SDS011;70085;44.530;0.094;2023-12-29T10:01:51;6.10;;;5.80;;
77535;SDS011;70085;44.530;0.094;2023-12-29T10:07:25;6.00;;;5.80;;
77535;SDS011;70085;44.530;0.094;2023-12-29T10:12:56;6.13;;;5.93;;
77535;SDS011;70085;44.530;0.094;2023-12-29T10:18:32;9.60;;;9.10;;
77535;SDS011;70085;44.530;0.094;2023-12-29T10:24:05;10.27;;;9.47;;
77535;SDS011;70085;44.530;0.094;2023-12-29T10:29:38;25.53;;;23.87;;
77535;SDS011;70085;44.530;0.094;2023-12-29T10:35:11;4.20;;;4.00;;
77535;SDS011;70085;44.530;0.094;2023-12-29T10:40:44;4.30;;;4.10;;
77535;SDS011;70085;44.530;0.094;2023-12-29T10:46:16;5.07;;;4.87;;
77535;SDS011;70085;44.530;0.094;2023-12-29T10:51:49;7.27;;;6.97;;
77535;SDS011;70085;44.530;0.094;2023-12-29T10:57:20;8.93;;;8.63;;
77535;SDS011;70085;44.530;0.094;2023-12-29T11:02:54;10.40;;;10.00;;
77535;SDS011;70085;44.530;0.094;2023-12-29T11:08:25;9.37;;;8.97;;
77535;SDS011;70085;44.530;0.094;2023-12-29T11:13:57;11.07;;;10.67;;
77535;SDS011;70085;44.530;0.094;2023-12-29T11:19:29;12.80;;;12.30;;
77535;SDS011;70085;44.530;0.094;2023-12-29T11:25:02;11.97;;;11.53;;
77535;SDS011;70085;44.530;0.094;2023-12-29T11:30:35;12.43;;;11.93;;
77535;SDS011;70085;44.530;0.094;2023-12-29T11:36:10;12.80;;;12.30;;
77535;SDS011;70085;44.530;0.094;2023-12-29T11:41:40;13.03;;;12.53;;
77535;SDS011;70085;44.530;0.094;2023-12-29T11:52:45;12.40;;;11.90;;
77535;SDS011;70085;44.530;0.094;2023-12-29T11:58:25;17.07;;;16.17;;
77535;SDS011;70085;44.530;0.094;2023-12-29T12:03:51;13.70;;;13.20;;
77535;SDS011;70085;44.530;0.094;2023-12-29T12:09:23;13.83;;;13.33;;
77535;SDS011;70085;44.530;0.094;2023-12-29T12:14:58;14.20;;;13.70;;
77535;SDS011;70085;44.530;0.094;2023-12-29T12:20:29;13.27;;;12.77;;
77535;SDS011;70085;44.530;0.094;2023-12-29T12:26:04;12.73;;;12.23;;
77535;SDS011;70085;44.530;0.094;2023-12-29T12:31:35;13.13;;;12.63;;
77535;SDS011;70085;44.530;0.094;2023-12-29T12:37:09;12.50;;;12.00;;
77535;SDS011;70085;44.530;0.094;2023-12-29T12:42:44;8.57;;;8.27;;
77535;SDS011;70085;44.530;0.094;2023-12-29T12:48:19;7.23;;;6.90;;
77535;SDS011;70085;44.530;0.094;2023-12-29T12:53:53;10.83;;;10.23;;
77535;SDS011;70085;44.530;0.094;2023-12-29T12:59:26;7.43;;;7.03;;
77535;SDS011;70085;44.530;0.094;2023-12-29T13:04:58;7.90;;;7.60;;
77535;SDS011;70085;44.530;0.094;2023-12-29T13:10:32;8.03;;;7.73;;
77535;SDS011;70085;44.530;0.094;2023-12-29T13:16:05;7.97;;;7.67;;
77535;SDS011;70085;44.530;0.094;2023-12-29T13:21:39;5.40;;;5.20;;
77535;SDS011;70085;44.530;0.094;2023-12-29T13:27:12;5.80;;;5.60;;
77535;SDS011;70085;44.530;0.094;2023-12-29T13:32:45;5.30;;;5.10;;
77535;SDS011;70085;44.530;0.094;2023-12-29T13:38:17;5.20;;;5.00;;
77535;SDS011;70085;44.530;0.094;2023-12-29T13:43:50;5.20;;;5.00;;
77535;SDS011;70085;44.530;0.094;2023-12-29T13:49:24;4.67;;;4.47;;
77535;SDS011;70085;44.530;0.094;2023-12-29T13:54:57;4.70;;;4.50;;
77535;SDS011;70085;44.530;0.094;2023-12-29T14:00:29;4.60;;;4.40;;
77535;SDS011;70085;44.530;0.094;2023-12-29T14:06:03;5.90;;;5.70;;
77535;SDS011;70085;44.530;0.094;2023-12-29T14:11:33;6.30;;;6.00;;
77535;SDS011;70085;44.530;0.094;2023-12-29T14:17:07;6.23;;;6.03;;
77535;SDS011;70085;44.530;0.094;2023-12-29T14:22:40;8.90;;;8.53;;
77535;SDS011;70085;44.530;0.094;2023-12-29T14:28:14;9.00;;;8.70;;
77535;SDS011;70085;44.530;0.094;2023-12-29T14:33:46;8.97;;;8.67;;
77535;SDS011;70085;44.530;0.094;2023-12-29T14:39:20;10.77;;;10.37;;
77535;SDS011;70085;44.530;0.094;2023-12-29T14:44:52;10.67;;;10.27;;
77535;SDS011;70085;44.530;0.094;2023-12-29T14:50:24;11.43;;;11.03;;
77535;SDS011;70085;44.530;0.094;2023-12-29T14:55:56;11.73;;;11.33;;
77535;SDS011;70085;44.530;0.094;2023-12-29T15:01:30;11.73;;;11.33;;
77535;SDS011;70085;44.530;0.094;2023-12-29T15:07:04;11.97;;;11.53;;
77535;SDS011;70085;44.530;0.094;2023-12-29T15:12:35;12.43;;;11.93;;
77535;SDS011;70085;44.530;0.094;2023-12-29T15:23:40;13.33;;;12.83;;
77535;SDS011;70085;44.530;0.094;2023-12-29T15:29:12;12.73;;;12.23;;
77535;SDS011;70085;44.530;0.094;2023-12-29T15:34:46;13.30;;;12.80;;
77535;SDS011;70085;44.530;0.094;2023-12-29T15:40:19;14.83;;;14.27;;
77535;SDS011;70085;44.530;0.094;2023-12-29T15:45:52;14.27;;;13.77;;
77535;SDS011;70085;44.530;0.094;2023-12-29T15:51:24;15.13;;;14.53;;
77535;SDS011;70085;44.530;0.094;2023-12-29T15:56:56;14.13;;;13.63;;
77535;SDS011;70085;44.530;0.094;2023-12-29T16:02:28;14.20;;;13.70;;
77535;SDS011;70085;44.530;0.094;2023-12-29T16:08:02;14.10;;;13.60;;
77535;SDS011;70085;44.530;0.094;2023-12-29T16:13:34;15.23;;;14.63;;
77535;SDS011;70085;44.530;0.094;2023-12-29T16:19:06;14.47;;;13.97;;
77535;SDS011;70085;44.530;0.094;2023-12-29T16:24:39;13.70;;;13.20;;
77535;SDS011;70085;44.530;0.094;2023-12-29T16:30:12;14.67;;;14.13;;
77535;SDS011;70085;44.530;0.094;2023-12-29T16:35:45;15.87;;;15.27;;
77535;SDS011;70085;44.530;0.094;2023-12-29T16:41:19;14.27;;;13.77;;
77535;SDS011;70085;44.530;0.094;2023-12-29T16:46:50;14.30;;;13.80;;
77535;SDS011;70085;44.530;0.094;2023-12-29T16:52:23;14.40;;;13.90;;
77535;SDS011;70085;44.530;0.094;2023-12-29T16:57:57;14.57;;;14.07;;
77535;SDS011;70085;44.530;0.094;2023-12-29T17:03:30;15.40;;;14.80;;
77535;SDS011;70085;44.530;0.094;2023-12-29T17:09:03;16.47;;;15.87;;
77535;SDS011;70085;44.530;0.094;2023-12-29T17:14:36;14.20;;;13.70;;
77535;SDS011;70085;44.530;0.094;2023-12-29T17:20:06;24.37;;;19.77;;
77535;SDS011;70085;44.530;0.094;2023-12-29T17:25:40;15.37;;;14.77;;
77535;SDS011;70085;44.530;0.094;2023-12-29T17:31:13;14.97;;;14.40;;
77535;SDS011;70085;44.530;0.094;2023-12-29T17:36:45;14.97;;;14.40;;
77535;SDS011;70085;44.530;0.094;2023-12-29T17:42:18;14.07;;;13.57;;
77535;SDS011;70085;44.530;0.094;2023-12-29T17:47:51;14.60;;;14.10;;
77535;SDS011;70085;44.530;0.094;2023-12-29T17:53:23;15.17;;;14.57;;
77535;SDS011;70085;44.530;0.094;2023-12-29T17:58:56;15.07;;;14.47;;
77535;SDS011;70085;44.530;0.094;2023-12-29T18:04:30;16.40;;;15.80;;
77535;SDS011;70085;44.530;0.094;2023-12-29T18:10:04;14.97;;;14.37;;
77535;SDS011;70085;44.530;0.094;2023-12-29T18:15:36;16.70;;;16.10;;
77535;SDS011;70085;44.530;0.094;2023-12-29T18:21:09;15.30;;;14.70;;
77535;SDS011;70085;44.530;0.094;2023-12-29T18:26:43;14.63;;;14.13;;
77535;SDS011;70085;44.530;0.094;2023-12-29T18:32:14;14.53;;;14.03;;
77535;SDS011;70085;44.530;0.094;2023-12-29T18:37:47;15.13;;;14.53;;
77535;SDS011;70085;44.530;0.094;2023-12-29T18:43:20;14.87;;;14.30;;
77535;SDS011;70085;44.530;0.094;2023-12-29T18:48:51;20.13;;;19.23;;
77535;SDS011;70085;44.530;0.094;2023-12-29T18:54:29;13.60;;;13.10;;
77535;SDS011;70085;44.530;0.094;2023-12-29T18:59:59;14.57;;;14.07;;
77535;SDS011;70085;44.530;0.094;2023-12-29T19:05:32;15.23;;;14.63;;
77535;SDS011;70085;44.530;0.094;2023-12-29T19:11:04;14.20;;;13.70;;
77535;SDS011;70085;44.530;0.094;2023-12-29T19:16:36;14.63;;;14.13;;
77535;SDS011;70085;44.530;0.094;2023-12-29T19:22:08;15.50;;;14.90;;
77535;SDS011;70085;44.530;0.094;2023-12-29T19:27:41;14.67;;;14.17;;
77535;SDS011;70085;44.530;0.094;2023-12-29T19:33:14;14.37;;;13.87;;
77535;SDS011;70085;44.530;0.094;2023-12-29T19:38:50;16.07;;;15.47;;
77535;SDS011;70085;44.530;0.094;2023-12-29T19:44:20;14.37;;;13.87;;
77535;SDS011;70085;44.530;0.094;2023-12-29T19:49:53;15.77;;;15.17;;
77535;SDS011;70085;44.530;0.094;2023-12-29T19:55:26;15.03;;;14.43;;
77535;SDS011;70085;44.530;0.094;2023-12-29T20:01:01;13.23;;;12.73;;
77535;SDS011;70085;44.530;0.094;2023-12-29T20:06:34;15.73;;;15.13;;
77535;SDS011;70085;44.530;0.094;2023-12-29T20:12:06;14.67;;;14.17;;
77535;SDS011;70085;44.530;0.094;2023-12-29T20:17:39;15.53;;;14.93;;
77535;SDS011;70085;44.530;0.094;2023-12-29T20:23:12;14.50;;;14.00;;
77535;SDS011;70085;44.530;0.094;2023-12-29T20:28:45;15.00;;;14.40;;
77535;SDS011;70085;44.530;0.094;2023-12-29T20:34:18;14.30;;;13.80;;
77535;SDS011;70085;44.530;0.094;2023-12-29T20:39:51;19.53;;;18.00;;
77535;SDS011;70085;44.530;0.094;2023-12-29T20:45:24;14.87;;;14.27;;
77535;SDS011;70085;44.530;0.094;2023-12-29T20:50:58;13.70;;;13.20;;
77535;SDS011;70085;44.530;0.094;2023-12-29T20:56:30;14.27;;;13.77;;
77535;SDS011;70085;44.530;0.094;2023-12-29T21:02:05;14.10;;;13.60;;
77535;SDS011;70085;44.530;0.094;2023-12-29T21:07:36;15.20;;;14.60;;
77535;SDS011;70085;44.530;0.094;2023-12-29T21:13:10;14.27;;;13.77;;
77535;SDS011;70085;44.530;0.094;2023-12-29T21:18:43;14.30;;;13.80;;
77535;SDS011;70085;44.530;0.094;2023-12-29T21:24:16;15.47;;;14.87;;
77535;SDS011;70085;44.530;0.094;2023-12-29T21:29:54;14.43;;;13.93;;
77535;SDS011;70085;44.530;0.094;2023-12-29T21:35:23;14.50;;;14.00;;
77535;SDS011;70085;44.530;0.094;2023-12-29T21:40:56;16.03;;;15.40;;
77535;SDS011;70085;44.530;0.094;2023-12-29T21:46:29;14.70;;;14.20;;
77535;SDS011;70085;44.530;0.094;2023-12-29T21:52:03;14.03;;;13.53;;
77535;SDS011;70085;44.530;0.094;2023-12-29T21:57:36;14.97;;;14.37;;
77535;SDS011;70085;44.530;0.094;2023-12-29T22:03:10;15.47;;;14.87;;
77535;SDS011;70085;44.530;0.094;2023-12-29T22:08:42;15.10;;;14.50;;
77535;SDS011;70085;44.530;0.094;2023-12-29T22:14:14;14.57;;;14.07;;
77535;SDS011;70085;44.530;0.094;2023-12-29T22:19:47;14.60;;;14.10;;
77535;SDS011;70085;44.530;0.094;2023-12-29T22:25:21;15.00;;;14.40;;
77535;SDS011;70085;44.530;0.094;2023-12-29T22:30:56;15.30;;;14.70;;
77535;SDS011;70085;44.530;0.094;2023-12-29T22:36:27;16.03;;;15.43;;
77535;SDS011;70085;44.530;0.094;2023-12-29T22:42:00;14.77;;;14.23;;
77535;SDS011;70085;44.530;0.094;2023-12-29T22:47:33;15.20;;;14.60;;
77535;SDS011;70085;44.530;0.094;2023-12-29T22:53:07;18.37;;;17.63;;
77535;SDS011;70085;44.530;0.094;2023-12-29T22:58:39;14.40;;;13.90;;
77535;SDS011;70085;44.530;0.094;2023-12-29T23:04:11;15.83;;;15.23;;
77535;SDS011;70085;44.530;0.094;2023-12-29T23:09:44;15.40;;;14.80;;
77535;SDS011;70085;44.530;0.094;2023-12-29T23:15:16;15.77;;;15.17;;
77535;SDS011;70085;44.530;0.094;2023-12-29T23:20:48;14.60;;;14.10;;
77535;SDS011;70085;44.530;0.094;2023-12-29T23:26:21;14.50;;;14.00;;
77535;SDS011;70085;44.530;0.094;2023-12-29T23:31:53;14.20;;;13.70;;
77535;SDS011;70085;44.530;0.094;2023-12-29T23:37:25;14.20;;;13.70;;
77535;SDS011;70085;44.530;0.094;2023-12-29T23:42:59;14.97;;;14.40;;
77535;SDS011;70085;44.530;0.094;2023-12-29T23:48:32;14.30;;;13.80;;
77535;SDS011;70085;44.530;0.094;2023-12-29T23:54:06;13.70;;;13.20;;
77535;SDS011;70085;44.530;0.094;2023-12-29T23:59:39;14.13;;;13.63;;
